sensor_id;sensor_type;location;lat;lon;timestamp;P1;durP1;ratioP1;P2;durP2;ratioP2
65545;SDS011;52177;55.968;37.498;2023-08-31T00:00:24;6.03;;;4.68;;
65545;SDS011;52177;55.968;37.498;2023-08-31T00:01:00;7.40;;;4.25;;
65545;SDS011;52177;55.968;37.498;2023-08-31T00:01:31;7.80;;;4.70;;
65545;SDS011;52177;55.968;37.498;2023-08-31T00:02:02;6.07;;;4.68;;
65545;SDS011;52177;55.968;37.498;2023-08-31T00:02:33;5.97;;;4.45;;
65545;SDS011;52177;55.968;37.498;2023-08-31T00:03:04;5.55;;;4.93;;
65545;SDS011;52177;55.968;37.498;2023-08-31T00:03:34;6.55;;;4.28;;
65545;SDS011;52177;55.968;37.498;2023-08-31T00:04:05;5.50;;;4.47;;
65545;SDS011;52177;55.968;37.498;2023-08-31T00:04:40;7.00;;;4.50;;
65545;SDS011;52177;55.968;37.498;2023-08-31T00:05:11;6.20;;;4.03;;
65545;SDS011;52177;55.968;37.498;2023-08-31T00:05:42;5.05;;;4.43;;
65545;SDS011;52177;55.968;37.498;2023-08-31T00:06:13;8.57;;;5.03;;
65545;SDS011;52177;55.968;37.498;2023-08-31T00:06:43;5.63;;;4.60;;
65545;SDS011;52177;55.968;37.498;2023-08-31T00:07:16;5.47;;;4.43;;
65545;SDS011;52177;55.968;37.498;2023-08-31T00:07:47;7.00;;;4.60;;
65545;SDS011;52177;55.968;37.498;2023-08-31T00:08:17;6.40;;;4.68;;
65545;SDS011;52177;55.968;37.498;2023-08-31T00:08:48;5.90;;;4.55;;
65545;SDS011;52177;55.968;37.498;2023-08-31T00:09:18;5.50;;;4.72;;
65545;SDS011;52177;55.968;37.498;2023-08-31T00:09:49;9.90;;;4.78;;
65545;SDS011;52177;55.968;37.498;2023-08-31T00:10:19;7.60;;;4.90;;
65545;SDS011;52177;55.968;37.498;2023-08-31T00:10:57;4.85;;;3.67;;
65545;SDS011;52177;55.968;37.498;2023-08-31T00:11:27;6.32;;;4.45;;
65545;SDS011;52177;55.968;37.498;2023-08-31T00:11:58;8.63;;;5.03;;
65545;SDS011;52177;55.968;37.498;2023-08-31T00:12:31;5.85;;;4.50;;
65545;SDS011;52177;55.968;37.498;2023-08-31T00:13:02;9.88;;;4.28;;
65545;SDS011;52177;55.968;37.498;2023-08-31T00:13:33;7.63;;;4.60;;
65545;SDS011;52177;55.968;37.498;2023-08-31T00:14:03;5.78;;;4.53;;
65545;SDS011;52177;55.968;37.498;2023-08-31T00:14:34;8.32;;;5.32;;
65545;SDS011;52177;55.968;37.498;2023-08-31T00:15:05;6.18;;;4.80;;
65545;SDS011;52177;55.968;37.498;2023-08-31T00:15:35;5.70;;;4.70;;
65545;SDS011;52177;55.968;37.498;2023-08-31T00:16:06;6.18;;;4.68;;
65545;SDS011;52177;55.968;37.498;2023-08-31T00:16:39;4.68;;;4.18;;
65545;SDS011;52177;55.968;37.498;2023-08-31T00:17:10;6.38;;;5.03;;
65545;SDS011;52177;55.968;37.498;2023-08-31T00:17:41;8.88;;;4.63;;
65545;SDS011;52177;55.968;37.498;2023-08-31T00:18:12;6.68;;;4.88;;
65545;SDS011;52177;55.968;37.498;2023-08-31T00:18:43;6.85;;;4.70;;
65545;SDS011;52177;55.968;37.498;2023-08-31T00:19:15;6.57;;;4.97;;
65545;SDS011;52177;55.968;37.498;2023-08-31T00:19:46;5.72;;;4.78;;
65545;SDS011;52177;55.968;37.498;2023-08-31T00:20:16;8.20;;;4.97;;
65545;SDS011;52177;55.968;37.498;2023-08-31T00:20:47;9.13;;;4.93;;
65545;SDS011;52177;55.968;37.498;2023-08-31T00:21:17;5.70;;;5.07;;
65545;SDS011;52177;55.968;37.498;2023-08-31T00:21:47;7.70;;;4.90;;
65545;SDS011;52177;55.968;37.498;2023-08-31T00:22:18;7.30;;;5.03;;
65545;SDS011;52177;55.968;37.498;2023-08-31T00:22:49;6.88;;;4.85;;
65545;SDS011;52177;55.968;37.498;2023-08-31T00:23:19;5.20;;;4.28;;
65545;SDS011;52177;55.968;37.498;2023-08-31T00:23:50;9.07;;;4.63;;
65545;SDS011;52177;55.968;37.498;2023-08-31T00:24:23;5.00;;;4.30;;
65545;SDS011;52177;55.968;37.498;2023-08-31T00:24:58;5.57;;;4.88;;
65545;SDS011;52177;55.968;37.498;2023-08-31T00:25:28;5.03;;;4.50;;
65545;SDS011;52177;55.968;37.498;2023-08-31T00:25:59;6.03;;;5.20;;
65545;SDS011;52177;55.968;37.498;2023-08-31T00:26:29;6.10;;;4.60;;
65545;SDS011;52177;55.968;37.498;2023-08-31T00:27:01;9.55;;;4.75;;
65545;SDS011;52177;55.968;37.498;2023-08-31T00:27:33;6.65;;;4.95;;
65545;SDS011;52177;55.968;37.498;2023-08-31T00:28:07;7.90;;;4.72;;
65545;SDS011;52177;55.968;37.498;2023-08-31T00:28:39;6.50;;;4.60;;
65545;SDS011;52177;55.968;37.498;2023-08-31T00:29:10;5.00;;;4.50;;
65545;SDS011;52177;55.968;37.498;2023-08-31T00:29:41;4.68;;;4.28;;
65545;SDS011;52177;55.968;37.498;2023-08-31T00:30:11;8.05;;;5.18;;
65545;SDS011;52177;55.968;37.498;2023-08-31T00:30:44;5.53;;;4.70;;
65545;SDS011;52177;55.968;37.498;2023-08-31T00:31:14;7.47;;;5.10;;
65545;SDS011;52177;55.968;37.498;2023-08-31T00:31:45;6.30;;;4.80;;
65545;SDS011;52177;55.968;37.498;2023-08-31T00:32:18;18.75;;;5.68;;
65545;SDS011;52177;55.968;37.498;2023-08-31T00:32:48;5.43;;;4.60;;
65545;SDS011;52177;55.968;37.498;2023-08-31T00:33:25;6.97;;;4.78;;
65545;SDS011;52177;55.968;37.498;2023-08-31T00:33:56;6.47;;;4.70;;
65545;SDS011;52177;55.968;37.498;2023-08-31T00:34:26;6.20;;;5.30;;
65545;SDS011;52177;55.968;37.498;2023-08-31T00:34:57;5.35;;;4.75;;
65545;SDS011;52177;55.968;37.498;2023-08-31T00:35:27;6.50;;;4.53;;
65545;SDS011;52177;55.968;37.498;2023-08-31T00:35:59;5.57;;;4.65;;
65545;SDS011;52177;55.968;37.498;2023-08-31T00:36:31;7.75;;;5.07;;
65545;SDS011;52177;55.968;37.498;2023-08-31T00:37:01;6.82;;;5.13;;
65545;SDS011;52177;55.968;37.498;2023-08-31T00:37:32;5.70;;;5.18;;
65545;SDS011;52177;55.968;37.498;2023-08-31T00:38:04;6.80;;;4.80;;
65545;SDS011;52177;55.968;37.498;2023-08-31T00:38:34;7.30;;;5.00;;
65545;SDS011;52177;55.968;37.498;2023-08-31T00:39:06;6.93;;;4.63;;
65545;SDS011;52177;55.968;37.498;2023-08-31T00:39:38;6.70;;;5.00;;
65545;SDS011;52177;55.968;37.498;2023-08-31T00:40:09;6.53;;;5.00;;
65545;SDS011;52177;55.968;37.498;2023-08-31T00:40:42;8.55;;;4.80;;
65545;SDS011;52177;55.968;37.498;2023-08-31T00:41:14;7.03;;;4.88;;
65545;SDS011;52177;55.968;37.498;2023-08-31T00:41:45;7.45;;;5.00;;
65545;SDS011;52177;55.968;37.498;2023-08-31T00:42:15;6.57;;;5.15;;
65545;SDS011;52177;55.968;37.498;2023-08-31T00:42:46;7.22;;;5.03;;
65545;SDS011;52177;55.968;37.498;2023-08-31T00:43:16;6.30;;;4.80;;
65545;SDS011;52177;55.968;37.498;2023-08-31T00:43:47;11.23;;;4.57;;
65545;SDS011;52177;55.968;37.498;2023-08-31T00:44:18;8.45;;;5.40;;
65545;SDS011;52177;55.968;37.498;2023-08-31T00:44:49;5.57;;;4.72;;
65545;SDS011;52177;55.968;37.498;2023-08-31T00:45:19;6.97;;;5.22;;
65545;SDS011;52177;55.968;37.498;2023-08-31T00:45:51;7.13;;;5.15;;
65545;SDS011;52177;55.968;37.498;2023-08-31T00:46:28;5.93;;;4.50;;
65545;SDS011;52177;55.968;37.498;2023-08-31T00:46:59;7.30;;;4.72;;
65545;SDS011;52177;55.968;37.498;2023-08-31T00:47:32;5.80;;;4.40;;
65545;SDS011;52177;55.968;37.498;2023-08-31T00:48:03;6.38;;;4.68;;
65545;SDS011;52177;55.968;37.498;2023-08-31T00:48:34;5.25;;;4.75;;
65545;SDS011;52177;55.968;37.498;2023-08-31T00:49:05;6.30;;;4.90;;
65545;SDS011;52177;55.968;37.498;2023-08-31T00:49:35;5.97;;;4.80;;
65545;SDS011;52177;55.968;37.498;2023-08-31T00:50:06;8.65;;;5.30;;
65545;SDS011;52177;55.968;37.498;2023-08-31T00:50:37;6.75;;;4.80;;
65545;SDS011;52177;55.968;37.498;2023-08-31T00:51:08;5.95;;;5.05;;
65545;SDS011;52177;55.968;37.498;2023-08-31T00:51:40;6.32;;;5.07;;
65545;SDS011;52177;55.968;37.498;2023-08-31T00:52:11;6.97;;;5.07;;
65545;SDS011;52177;55.968;37.498;2023-08-31T00:52:42;6.30;;;5.13;;
65545;SDS011;52177;55.968;37.498;2023-08-31T00:53:14;6.50;;;5.20;;
65545;SDS011;52177;55.968;37.498;2023-08-31T00:53:45;8.73;;;5.75;;
65545;SDS011;52177;55.968;37.498;2023-08-31T00:54:19;6.60;;;5.82;;
65545;SDS011;52177;55.968;37.498;2023-08-31T00:54:51;8.82;;;5.40;;
65545;SDS011;52177;55.968;37.498;2023-08-31T00:55:23;7.65;;;5.78;;
65545;SDS011;52177;55.968;37.498;2023-08-31T00:55:53;7.95;;;5.53;;
65545;SDS011;52177;55.968;37.498;2023-08-31T00:56:24;8.05;;;5.57;;
65545;SDS011;52177;55.968;37.498;2023-08-31T00:56:56;7.40;;;5.70;;
65545;SDS011;52177;55.968;37.498;2023-08-31T00:57:27;7.88;;;5.70;;
65545;SDS011;52177;55.968;37.498;2023-08-31T00:57:58;9.02;;;5.13;;
65545;SDS011;52177;55.968;37.498;2023-08-31T00:58:30;6.72;;;5.43;;
65545;SDS011;52177;55.968;37.498;2023-08-31T00:59:00;6.05;;;5.38;;
65545;SDS011;52177;55.968;37.498;2023-08-31T00:59:31;6.68;;;5.13;;
65545;SDS011;52177;55.968;37.498;2023-08-31T01:00:01;7.32;;;5.30;;
65545;SDS011;52177;55.968;37.498;2023-08-31T01:00:44;7.22;;;5.40;;
65545;SDS011;52177;55.968;37.498;2023-08-31T01:01:36;7.50;;;5.30;;
65545;SDS011;52177;55.968;37.498;2023-08-31T01:02:59;9.05;;;5.47;;
65545;SDS011;52177;55.968;37.498;2023-08-31T01:05:37;7.03;;;5.75;;
65545;SDS011;52177;55.968;37.498;2023-08-31T01:06:13;6.70;;;5.78;;
65545;SDS011;52177;55.968;37.498;2023-08-31T01:07:13;11.65;;;6.25;;
65545;SDS011;52177;55.968;37.498;2023-08-31T01:10:55;6.95;;;5.35;;
65545;SDS011;52177;55.968;37.498;2023-08-31T01:11:37;6.38;;;5.60;;
65545;SDS011;52177;55.968;37.498;2023-08-31T01:12:26;7.82;;;5.25;;
65545;SDS011;52177;55.968;37.498;2023-08-31T01:13:13;7.07;;;5.35;;
65545;SDS011;52177;55.968;37.498;2023-08-31T01:13:48;5.80;;;5.05;;
65545;SDS011;52177;55.968;37.498;2023-08-31T01:14:25;6.28;;;4.95;;
65545;SDS011;52177;55.968;37.498;2023-08-31T01:15:03;10.07;;;5.28;;
65545;SDS011;52177;55.968;37.498;2023-08-31T01:15:46;8.10;;;4.93;;
65545;SDS011;52177;55.968;37.498;2023-08-31T01:16:23;6.03;;;5.15;;
65545;SDS011;52177;55.968;37.498;2023-08-31T01:16:55;8.05;;;5.60;;
65545;SDS011;52177;55.968;37.498;2023-08-31T01:17:28;7.85;;;5.30;;
65545;SDS011;52177;55.968;37.498;2023-08-31T01:18:00;6.47;;;5.45;;
65545;SDS011;52177;55.968;37.498;2023-08-31T01:18:31;6.18;;;5.43;;
65545;SDS011;52177;55.968;37.498;2023-08-31T01:19:06;7.43;;;4.88;;
65545;SDS011;52177;55.968;37.498;2023-08-31T01:19:55;6.53;;;5.03;;
65545;SDS011;52177;55.968;37.498;2023-08-31T01:20:38;7.50;;;5.50;;
65545;SDS011;52177;55.968;37.498;2023-08-31T01:21:20;8.50;;;5.22;;
65545;SDS011;52177;55.968;37.498;2023-08-31T01:21:55;6.82;;;5.60;;
65545;SDS011;52177;55.968;37.498;2023-08-31T01:23:06;6.13;;;5.53;;
65545;SDS011;52177;55.968;37.498;2023-08-31T01:23:53;6.88;;;4.82;;
65545;SDS011;52177;55.968;37.498;2023-08-31T01:24:25;6.28;;;5.05;;
65545;SDS011;52177;55.968;37.498;2023-08-31T01:24:56;9.35;;;5.00;;
65545;SDS011;52177;55.968;37.498;2023-08-31T01:25:29;6.70;;;5.00;;
65545;SDS011;52177;55.968;37.498;2023-08-31T01:26:01;6.05;;;5.28;;
65545;SDS011;52177;55.968;37.498;2023-08-31T01:26:32;6.45;;;4.80;;
65545;SDS011;52177;55.968;37.498;2023-08-31T01:27:02;6.68;;;4.97;;
65545;SDS011;52177;55.968;37.498;2023-08-31T01:27:33;7.50;;;5.07;;
65545;SDS011;52177;55.968;37.498;2023-08-31T01:28:04;6.38;;;5.10;;
65545;SDS011;52177;55.968;37.498;2023-08-31T01:28:36;5.78;;;5.18;;
65545;SDS011;52177;55.968;37.498;2023-08-31T01:29:08;6.70;;;4.85;;
65545;SDS011;52177;55.968;37.498;2023-08-31T01:29:39;8.65;;;5.20;;
65545;SDS011;52177;55.968;37.498;2023-08-31T01:30:09;6.35;;;4.95;;
65545;SDS011;52177;55.968;37.498;2023-08-31T01:30:40;7.65;;;4.85;;
65545;SDS011;52177;55.968;37.498;2023-08-31T01:31:10;5.22;;;4.60;;
65545;SDS011;52177;55.968;37.498;2023-08-31T01:31:42;7.18;;;5.20;;
65545;SDS011;52177;55.968;37.498;2023-08-31T01:32:13;7.93;;;4.97;;
65545;SDS011;52177;55.968;37.498;2023-08-31T01:32:44;8.10;;;5.28;;
65545;SDS011;52177;55.968;37.498;2023-08-31T01:33:17;7.05;;;5.22;;
65545;SDS011;52177;55.968;37.498;2023-08-31T01:33:48;8.40;;;5.03;;
65545;SDS011;52177;55.968;37.498;2023-08-31T01:34:18;5.55;;;5.05;;
65545;SDS011;52177;55.968;37.498;2023-08-31T01:34:52;8.85;;;5.00;;
65545;SDS011;52177;55.968;37.498;2023-08-31T01:35:23;5.90;;;4.75;;
65545;SDS011;52177;55.968;37.498;2023-08-31T01:35:55;5.72;;;4.70;;
65545;SDS011;52177;55.968;37.498;2023-08-31T01:36:29;5.82;;;4.78;;
65545;SDS011;52177;55.968;37.498;2023-08-31T01:37:07;8.95;;;5.05;;
65545;SDS011;52177;55.968;37.498;2023-08-31T01:38:30;10.95;;;5.38;;
65545;SDS011;52177;55.968;37.498;2023-08-31T01:39:19;6.00;;;4.85;;
65545;SDS011;52177;55.968;37.498;2023-08-31T01:39:52;8.13;;;4.88;;
65545;SDS011;52177;55.968;37.498;2023-08-31T01:41:05;7.95;;;5.25;;
65545;SDS011;52177;55.968;37.498;2023-08-31T01:41:40;10.60;;;5.47;;
65545;SDS011;52177;55.968;37.498;2023-08-31T01:42:16;6.38;;;5.10;;
65545;SDS011;52177;55.968;37.498;2023-08-31T01:42:47;7.28;;;5.43;;
65545;SDS011;52177;55.968;37.498;2023-08-31T01:43:18;6.70;;;5.15;;
65545;SDS011;52177;55.968;37.498;2023-08-31T01:43:49;8.90;;;5.28;;
65545;SDS011;52177;55.968;37.498;2023-08-31T01:44:22;7.35;;;5.55;;
65545;SDS011;52177;55.968;37.498;2023-08-31T01:44:55;6.68;;;5.72;;
65545;SDS011;52177;55.968;37.498;2023-08-31T01:45:27;8.38;;;5.75;;
65545;SDS011;52177;55.968;37.498;2023-08-31T01:45:58;6.07;;;5.40;;
65545;SDS011;52177;55.968;37.498;2023-08-31T01:46:29;7.43;;;5.93;;
65545;SDS011;52177;55.968;37.498;2023-08-31T01:47:04;6.72;;;5.35;;
65545;SDS011;52177;55.968;37.498;2023-08-31T01:47:36;6.45;;;5.65;;
65545;SDS011;52177;55.968;37.498;2023-08-31T01:48:06;8.52;;;5.57;;
65545;SDS011;52177;55.968;37.498;2023-08-31T01:48:37;10.43;;;6.05;;
65545;SDS011;52177;55.968;37.498;2023-08-31T01:49:11;8.15;;;6.18;;
65545;SDS011;52177;55.968;37.498;2023-08-31T01:49:41;7.43;;;5.90;;
65545;SDS011;52177;55.968;37.498;2023-08-31T01:50:13;9.98;;;5.72;;
65545;SDS011;52177;55.968;37.498;2023-08-31T01:50:43;7.15;;;5.82;;
65545;SDS011;52177;55.968;37.498;2023-08-31T01:51:16;8.57;;;6.00;;
65545;SDS011;52177;55.968;37.498;2023-08-31T01:51:47;8.38;;;5.65;;
65545;SDS011;52177;55.968;37.498;2023-08-31T01:52:18;8.13;;;5.55;;
65545;SDS011;52177;55.968;37.498;2023-08-31T01:52:48;7.00;;;5.28;;
65545;SDS011;52177;55.968;37.498;2023-08-31T01:53:18;8.57;;;6.13;;
65545;SDS011;52177;55.968;37.498;2023-08-31T01:53:49;7.30;;;5.90;;
65545;SDS011;52177;55.968;37.498;2023-08-31T01:54:19;7.07;;;5.82;;
65545;SDS011;52177;55.968;37.498;2023-08-31T01:54:50;6.65;;;5.90;;
65545;SDS011;52177;55.968;37.498;2023-08-31T01:55:20;6.97;;;5.97;;
65545;SDS011;52177;55.968;37.498;2023-08-31T01:55:51;10.13;;;6.63;;
65545;SDS011;52177;55.968;37.498;2023-08-31T01:56:22;7.78;;;6.20;;
65545;SDS011;52177;55.968;37.498;2023-08-31T01:56:52;10.60;;;6.78;;
65545;SDS011;52177;55.968;37.498;2023-08-31T01:57:23;7.85;;;5.65;;
65545;SDS011;52177;55.968;37.498;2023-08-31T01:57:53;10.13;;;6.20;;
65545;SDS011;52177;55.968;37.498;2023-08-31T01:58:24;6.97;;;5.80;;
65545;SDS011;52177;55.968;37.498;2023-08-31T01:58:54;8.35;;;6.30;;
65545;SDS011;52177;55.968;37.498;2023-08-31T01:59:24;10.13;;;6.47;;
65545;SDS011;52177;55.968;37.498;2023-08-31T01:59:56;9.68;;;6.03;;
65545;SDS011;52177;55.968;37.498;2023-08-31T02:00:26;8.10;;;6.13;;
65545;SDS011;52177;55.968;37.498;2023-08-31T02:00:58;7.78;;;6.40;;
65545;SDS011;52177;55.968;37.498;2023-08-31T02:01:28;11.32;;;7.10;;
65545;SDS011;52177;55.968;37.498;2023-08-31T02:01:59;7.75;;;6.50;;
65545;SDS011;52177;55.968;37.498;2023-08-31T02:02:29;11.88;;;7.53;;
65545;SDS011;52177;55.968;37.498;2023-08-31T02:03:00;8.27;;;6.63;;
65545;SDS011;52177;55.968;37.498;2023-08-31T02:03:31;8.95;;;6.45;;
65545;SDS011;52177;55.968;37.498;2023-08-31T02:04:01;9.00;;;7.07;;
65545;SDS011;52177;55.968;37.498;2023-08-31T02:04:32;12.60;;;7.00;;
65545;SDS011;52177;55.968;37.498;2023-08-31T02:05:03;10.95;;;7.13;;
65545;SDS011;52177;55.968;37.498;2023-08-31T02:05:34;9.65;;;7.15;;
65545;SDS011;52177;55.968;37.498;2023-08-31T02:06:04;9.95;;;7.63;;
65545;SDS011;52177;55.968;37.498;2023-08-31T02:06:35;11.80;;;7.43;;
65545;SDS011;52177;55.968;37.498;2023-08-31T02:07:05;10.40;;;7.75;;
65545;SDS011;52177;55.968;37.498;2023-08-31T02:07:36;11.75;;;7.38;;
65545;SDS011;52177;55.968;37.498;2023-08-31T02:08:06;11.70;;;7.47;;
65545;SDS011;52177;55.968;37.498;2023-08-31T02:08:36;13.57;;;7.28;;
65545;SDS011;52177;55.968;37.498;2023-08-31T02:09:07;8.63;;;6.97;;
65545;SDS011;52177;55.968;37.498;2023-08-31T02:09:37;9.75;;;6.97;;
65545;SDS011;52177;55.968;37.498;2023-08-31T02:10:08;9.18;;;7.30;;
65545;SDS011;52177;55.968;37.498;2023-08-31T02:10:39;10.40;;;7.60;;
65545;SDS011;52177;55.968;37.498;2023-08-31T02:11:10;10.30;;;8.07;;
65545;SDS011;52177;55.968;37.498;2023-08-31T02:11:40;8.75;;;7.55;;
65545;SDS011;52177;55.968;37.498;2023-08-31T02:12:10;8.20;;;7.40;;
65545;SDS011;52177;55.968;37.498;2023-08-31T02:12:41;9.73;;;8.25;;
65545;SDS011;52177;55.968;37.498;2023-08-31T02:13:13;11.07;;;7.32;;
65545;SDS011;52177;55.968;37.498;2023-08-31T02:13:44;9.88;;;7.63;;
65545;SDS011;52177;55.968;37.498;2023-08-31T02:14:14;9.60;;;7.65;;
65545;SDS011;52177;55.968;37.498;2023-08-31T02:14:45;9.85;;;7.90;;
65545;SDS011;52177;55.968;37.498;2023-08-31T02:15:15;9.23;;;7.60;;
65545;SDS011;52177;55.968;37.498;2023-08-31T02:15:46;9.63;;;7.47;;
65545;SDS011;52177;55.968;37.498;2023-08-31T02:16:16;10.02;;;7.90;;
65545;SDS011;52177;55.968;37.498;2023-08-31T02:16:46;8.50;;;7.43;;
65545;SDS011;52177;55.968;37.498;2023-08-31T02:17:17;11.20;;;7.70;;
65545;SDS011;52177;55.968;37.498;2023-08-31T02:17:47;12.77;;;7.80;;
65545;SDS011;52177;55.968;37.498;2023-08-31T02:18:18;9.40;;;7.50;;
65545;SDS011;52177;55.968;37.498;2023-08-31T02:18:48;9.40;;;8.10;;
65545;SDS011;52177;55.968;37.498;2023-08-31T02:19:18;13.57;;;7.65;;
65545;SDS011;52177;55.968;37.498;2023-08-31T02:19:49;11.35;;;8.05;;
65545;SDS011;52177;55.968;37.498;2023-08-31T02:20:20;9.55;;;7.40;;
65545;SDS011;52177;55.968;37.498;2023-08-31T02:20:51;10.02;;;7.88;;
65545;SDS011;52177;55.968;37.498;2023-08-31T02:21:23;10.98;;;7.95;;
65545;SDS011;52177;55.968;37.498;2023-08-31T02:21:53;10.30;;;8.23;;
65545;SDS011;52177;55.968;37.498;2023-08-31T02:22:24;8.60;;;7.65;;
65545;SDS011;52177;55.968;37.498;2023-08-31T02:22:54;9.23;;;8.18;;
65545;SDS011;52177;55.968;37.498;2023-08-31T02:23:25;11.98;;;8.00;;
65545;SDS011;52177;55.968;37.498;2023-08-31T02:23:56;11.20;;;8.00;;
65545;SDS011;52177;55.968;37.498;2023-08-31T02:24:26;12.88;;;8.30;;
65545;SDS011;52177;55.968;37.498;2023-08-31T02:24:57;12.82;;;8.82;;
65545;SDS011;52177;55.968;37.498;2023-08-31T02:25:27;12.75;;;9.13;;
65545;SDS011;52177;55.968;37.498;2023-08-31T02:26:00;8.30;;;7.50;;
65545;SDS011;52177;55.968;37.498;2023-08-31T02:26:31;11.43;;;8.52;;
65545;SDS011;52177;55.968;37.498;2023-08-31T02:27:01;9.35;;;8.13;;
65545;SDS011;52177;55.968;37.498;2023-08-31T02:27:32;11.52;;;8.05;;
65545;SDS011;52177;55.968;37.498;2023-08-31T02:28:02;11.75;;;8.13;;
65545;SDS011;52177;55.968;37.498;2023-08-31T02:28:33;10.88;;;8.30;;
65545;SDS011;52177;55.968;37.498;2023-08-31T02:29:03;12.18;;;8.32;;
65545;SDS011;52177;55.968;37.498;2023-08-31T02:29:33;12.00;;;8.45;;
65545;SDS011;52177;55.968;37.498;2023-08-31T02:30:04;12.10;;;7.88;;
65545;SDS011;52177;55.968;37.498;2023-08-31T02:30:35;11.55;;;8.15;;
65545;SDS011;52177;55.968;37.498;2023-08-31T02:31:05;11.15;;;8.55;;
65545;SDS011;52177;55.968;37.498;2023-08-31T02:31:36;13.27;;;8.45;;
65545;SDS011;52177;55.968;37.498;2023-08-31T02:32:08;10.40;;;8.55;;
65545;SDS011;52177;55.968;37.498;2023-08-31T02:32:39;11.68;;;8.50;;
65545;SDS011;52177;55.968;37.498;2023-08-31T02:33:09;9.07;;;7.75;;
65545;SDS011;52177;55.968;37.498;2023-08-31T02:33:40;10.40;;;7.45;;
65545;SDS011;52177;55.968;37.498;2023-08-31T02:34:10;11.52;;;7.70;;
65545;SDS011;52177;55.968;37.498;2023-08-31T02:34:41;10.10;;;7.82;;
65545;SDS011;52177;55.968;37.498;2023-08-31T02:35:11;12.63;;;8.52;;
65545;SDS011;52177;55.968;37.498;2023-08-31T02:35:42;11.02;;;8.32;;
65545;SDS011;52177;55.968;37.498;2023-08-31T02:36:12;12.65;;;8.57;;
65545;SDS011;52177;55.968;37.498;2023-08-31T02:36:43;12.55;;;8.57;;
65545;SDS011;52177;55.968;37.498;2023-08-31T02:37:13;10.38;;;8.35;;
65545;SDS011;52177;55.968;37.498;2023-08-31T02:37:43;10.75;;;8.75;;
65545;SDS011;52177;55.968;37.498;2023-08-31T02:38:14;10.15;;;8.30;;
65545;SDS011;52177;55.968;37.498;2023-08-31T02:38:44;9.52;;;8.52;;
65545;SDS011;52177;55.968;37.498;2023-08-31T02:39:16;11.90;;;8.95;;
65545;SDS011;52177;55.968;37.498;2023-08-31T02:39:46;13.95;;;8.88;;
65545;SDS011;52177;55.968;37.498;2023-08-31T02:40:17;11.05;;;9.07;;
65545;SDS011;52177;55.968;37.498;2023-08-31T02:40:47;12.45;;;8.65;;
65545;SDS011;52177;55.968;37.498;2023-08-31T02:41:18;11.88;;;9.32;;
65545;SDS011;52177;55.968;37.498;2023-08-31T02:41:48;9.90;;;8.95;;
65545;SDS011;52177;55.968;37.498;2023-08-31T02:42:18;11.07;;;8.50;;
65545;SDS011;52177;55.968;37.498;2023-08-31T02:42:52;10.57;;;9.32;;
65545;SDS011;52177;55.968;37.498;2023-08-31T02:43:22;10.73;;;8.80;;
65545;SDS011;52177;55.968;37.498;2023-08-31T02:43:53;12.07;;;9.60;;
65545;SDS011;52177;55.968;37.498;2023-08-31T02:44:23;11.88;;;8.73;;
65545;SDS011;52177;55.968;37.498;2023-08-31T02:44:53;11.32;;;9.23;;
65545;SDS011;52177;55.968;37.498;2023-08-31T02:45:24;13.70;;;9.43;;
65545;SDS011;52177;55.968;37.498;2023-08-31T02:46:01;12.55;;;9.55;;
65545;SDS011;52177;55.968;37.498;2023-08-31T02:46:32;11.77;;;9.23;;
65545;SDS011;52177;55.968;37.498;2023-08-31T02:47:03;11.05;;;8.82;;
65545;SDS011;52177;55.968;37.498;2023-08-31T02:47:33;12.68;;;8.82;;
65545;SDS011;52177;55.968;37.498;2023-08-31T02:48:04;11.68;;;8.23;;
65545;SDS011;52177;55.968;37.498;2023-08-31T02:48:36;12.82;;;9.50;;
65545;SDS011;52177;55.968;37.498;2023-08-31T02:49:08;15.60;;;9.30;;
65545;SDS011;52177;55.968;37.498;2023-08-31T02:49:39;12.32;;;8.98;;
65545;SDS011;52177;55.968;37.498;2023-08-31T02:50:09;10.60;;;8.90;;
65545;SDS011;52177;55.968;37.498;2023-08-31T02:50:40;10.32;;;9.25;;
65545;SDS011;52177;55.968;37.498;2023-08-31T02:51:10;12.38;;;9.52;;
65545;SDS011;52177;55.968;37.498;2023-08-31T02:51:40;10.80;;;9.45;;
65545;SDS011;52177;55.968;37.498;2023-08-31T02:52:11;11.35;;;8.88;;
65545;SDS011;52177;55.968;37.498;2023-08-31T02:52:42;14.13;;;9.40;;
65545;SDS011;52177;55.968;37.498;2023-08-31T02:53:12;12.15;;;9.20;;
65545;SDS011;52177;55.968;37.498;2023-08-31T02:53:42;11.85;;;9.20;;
65545;SDS011;52177;55.968;37.498;2023-08-31T02:54:13;12.90;;;8.65;;
65545;SDS011;52177;55.968;37.498;2023-08-31T02:54:43;10.77;;;9.07;;
65545;SDS011;52177;55.968;37.498;2023-08-31T02:55:46;11.80;;;8.68;;
65545;SDS011;52177;55.968;37.498;2023-08-31T02:56:17;11.30;;;8.68;;
65545;SDS011;52177;55.968;37.498;2023-08-31T02:56:47;9.65;;;8.65;;
65545;SDS011;52177;55.968;37.498;2023-08-31T02:57:17;12.15;;;8.88;;
65545;SDS011;52177;55.968;37.498;2023-08-31T02:57:49;11.23;;;8.20;;
65545;SDS011;52177;55.968;37.498;2023-08-31T02:58:20;10.88;;;8.32;;
65545;SDS011;52177;55.968;37.498;2023-08-31T02:58:50;11.27;;;9.10;;
65545;SDS011;52177;55.968;37.498;2023-08-31T02:59:21;13.40;;;9.25;;
65545;SDS011;52177;55.968;37.498;2023-08-31T02:59:51;14.93;;;9.50;;
65545;SDS011;52177;55.968;37.498;2023-08-31T03:00:22;13.73;;;8.73;;
65545;SDS011;52177;55.968;37.498;2023-08-31T03:00:52;10.75;;;9.15;;
65545;SDS011;52177;55.968;37.498;2023-08-31T03:01:23;11.23;;;8.93;;
65545;SDS011;52177;55.968;37.498;2023-08-31T03:01:54;10.68;;;8.57;;
65545;SDS011;52177;55.968;37.498;2023-08-31T03:02:24;12.60;;;8.80;;
65545;SDS011;52177;55.968;37.498;2023-08-31T03:02:55;9.90;;;8.45;;
65545;SDS011;52177;55.968;37.498;2023-08-31T03:03:25;11.38;;;8.63;;
65545;SDS011;52177;55.968;37.498;2023-08-31T03:03:55;16.35;;;9.30;;
65545;SDS011;52177;55.968;37.498;2023-08-31T03:04:26;11.48;;;9.02;;
65545;SDS011;52177;55.968;37.498;2023-08-31T03:04:56;11.75;;;8.95;;
65545;SDS011;52177;55.968;37.498;2023-08-31T03:05:27;11.32;;;8.60;;
65545;SDS011;52177;55.968;37.498;2023-08-31T03:05:57;14.05;;;8.82;;
65545;SDS011;52177;55.968;37.498;2023-08-31T03:06:28;11.18;;;8.68;;
65545;SDS011;52177;55.968;37.498;2023-08-31T03:06:58;9.60;;;8.35;;
65545;SDS011;52177;55.968;37.498;2023-08-31T03:07:28;11.55;;;8.68;;
65545;SDS011;52177;55.968;37.498;2023-08-31T03:07:59;10.68;;;8.52;;
65545;SDS011;52177;55.968;37.498;2023-08-31T03:08:29;12.80;;;9.25;;
65545;SDS011;52177;55.968;37.498;2023-08-31T03:09:00;10.63;;;9.02;;
65545;SDS011;52177;55.968;37.498;2023-08-31T03:09:32;14.48;;;9.02;;
65545;SDS011;52177;55.968;37.498;2023-08-31T03:10:02;10.85;;;8.65;;
65545;SDS011;52177;55.968;37.498;2023-08-31T03:10:33;12.82;;;8.95;;
65545;SDS011;52177;55.968;37.498;2023-08-31T03:11:04;10.40;;;9.23;;
65545;SDS011;52177;55.968;37.498;2023-08-31T03:11:35;9.48;;;8.48;;
65545;SDS011;52177;55.968;37.498;2023-08-31T03:12:06;13.63;;;8.95;;
65545;SDS011;52177;55.968;37.498;2023-08-31T03:12:36;13.32;;;8.75;;
65545;SDS011;52177;55.968;37.498;2023-08-31T03:13:07;12.85;;;8.45;;
65545;SDS011;52177;55.968;37.498;2023-08-31T03:13:37;12.90;;;8.35;;
65545;SDS011;52177;55.968;37.498;2023-08-31T03:14:07;14.45;;;8.90;;
65545;SDS011;52177;55.968;37.498;2023-08-31T03:14:39;10.02;;;8.40;;
65545;SDS011;52177;55.968;37.498;2023-08-31T03:15:10;9.27;;;8.35;;
65545;SDS011;52177;55.968;37.498;2023-08-31T03:15:40;10.18;;;8.65;;
65545;SDS011;52177;55.968;37.498;2023-08-31T03:16:11;12.70;;;9.15;;
65545;SDS011;52177;55.968;37.498;2023-08-31T03:16:41;11.90;;;8.50;;